sensor_id;sensor_type;location;lat;lon;timestamp;pressure;altitude;pressure_sealevel;temperature;humidity
53699;BME280;68408;53.952;27.612;2023-04-15T00:00:59;1013.7;;;9.3;48.2
53699;BME280;68408;53.952;27.612;2023-04-15T00:06:48;1013.7;;;9.4;48.1
53699;BME280;68408;53.952;27.612;2023-04-15T00:10:59;1013.6;;;9.4;47.9
53699;BME280;68408;53.952;27.612;2023-04-15T00:16:43;1013.7;;;9.3;48.2
53699;BME280;68408;53.952;27.612;2023-04-15T00:21:43;1013.7;;;9.3;48.1
53699;BME280;68408;53.952;27.612;2023-04-15T00:26:09;1013.7;;;9.4;48
53699;BME280;68408;53.952;27.612;2023-04-15T00:46:43;1013.7;;;9.3;47.7
53699;BME280;68408;53.952;27.612;2023-04-15T00:50:59;1013.7;;;9.2;48
53699;BME280;68408;53.952;27.612;2023-04-15T00:56:21;1013.7;;;9.2;47.5
53699;BME280;68408;53.952;27.612;2023-04-15T01:00:59;1013.7;;;9.2;47.3
53699;BME280;68408;53.952;27.612;2023-04-15T01:06:29;1013.7;;;9.2;47.3
53699;BME280;68408;53.952;27.612;2023-04-15T01:11:43;1013.7;;;9.2;47.2
53699;BME280;68408;53.952;27.612;2023-04-15T01:16:09;1013.7;;;9.2;47.3
53699;BME280;68408;53.952;27.612;2023-04-15T01:21:21;1013.8;;;9.2;47.4
53699;BME280;68408;53.952;27.612;2023-04-15T01:26:23;1013.8;;;9.2;47.5
53699;BME280;68408;53.952;27.612;2023-04-15T01:31:27;1013.8;;;9.2;47.5
53699;BME280;68408;53.952;27.612;2023-04-15T01:36:41;1013.8;;;9.2;47.6
53699;BME280;68408;53.952;27.612;2023-04-15T01:41:45;1013.8;;;9.2;47.6
53699;BME280;68408;53.952;27.612;2023-04-15T01:45:59;1013.8;;;9.2;47.5
53699;BME280;68408;53.952;27.612;2023-04-15T01:51:11;1013.8;;;9.2;47.7
53699;BME280;68408;53.952;27.612;2023-04-15T01:56:25;1013.8;;;9.2;47.6
53699;BME280;68408;53.952;27.612;2023-04-15T02:01:41;1013.8;;;9.1;47.8
53699;BME280;68408;53.952;27.612;2023-04-15T02:06:27;1013.8;;;9.1;47.8
53699;BME280;68408;53.952;27.612;2023-04-15T02:11:11;1013.8;;;9.1;48
53699;BME280;68408;53.952;27.612;2023-04-15T02:16:14;1013.8;;;9.1;48
53699;BME280;68408;53.952;27.612;2023-04-15T02:21:25;1013.8;;;9.1;48.3
53699;BME280;68408;53.952;27.612;2023-04-15T02:26:41;1013.8;;;9.1;48.3
53699;BME280;68408;53.952;27.612;2023-04-15T02:31:27;1013.8;;;9.1;48.4
53699;BME280;68408;53.952;27.612;2023-04-15T02:36:19;1013.8;;;9.1;48.6
53699;BME280;68408;53.952;27.612;2023-04-15T02:40:59;1013.8;;;9.1;48.6
53699;BME280;68408;53.952;27.612;2023-04-15T02:46:27;1013.8;;;9.1;48.8
53699;BME280;68408;53.952;27.612;2023-04-15T02:51:31;1013.8;;;9.1;48.9
53699;BME280;68408;53.952;27.612;2023-04-15T02:56:21;1013.8;;;9.1;49
53699;BME280;68408;53.952;27.612;2023-04-15T03:00:59;1013.8;;;9.1;49
53699;BME280;68408;53.952;27.612;2023-04-15T03:06:11;1013.8;;;9.1;49.1
53699;BME280;68408;53.952;27.612;2023-04-15T03:11:29;1013.9;;;9;49.2
53699;BME280;68408;53.952;27.612;2023-04-15T03:16:39;1013.9;;;9.1;49.2
53699;BME280;68408;53.952;27.612;2023-04-15T03:21:25;1014;;;9.1;49.3
53699;BME280;68408;53.952;27.612;2023-04-15T03:26:25;1014;;;9;49.3
53699;BME280;68408;53.952;27.612;2023-04-15T03:31:33;1014;;;9.1;49.3
53699;BME280;68408;53.952;27.612;2023-04-15T03:36:29;1014.1;;;9.1;49.3
53699;BME280;68408;53.952;27.612;2023-04-15T03:41:41;1014.1;;;9.1;49.2
53699;BME280;68408;53.952;27.612;2023-04-15T03:46:21;1014.1;;;9.1;49.3
53699;BME280;68408;53.952;27.612;2023-04-15T03:51:11;1014.2;;;9.1;49.3
53699;BME280;68408;53.952;27.612;2023-04-15T03:56:33;1014.2;;;9.1;49.4
53699;BME280;68408;53.952;27.612;2023-04-15T04:01:01;1014.2;;;9.1;49.2
53699;BME280;68408;53.952;27.612;2023-04-15T04:06:41;1014.2;;;9.1;49.2
53699;BME280;68408;53.952;27.612;2023-04-15T04:11:27;1014.2;;;9.1;49.3
53699;BME280;68408;53.952;27.612;2023-04-15T04:16:19;1014.1;;;9.1;49.4
53699;BME280;68408;53.952;27.612;2023-04-15T04:20:59;1014.2;;;9.1;49.4
53699;BME280;68408;53.952;27.612;2023-04-15T04:26:27;1014.2;;;9.1;49.5
53699;BME280;68408;53.952;27.612;2023-04-15T04:31:41;1014.2;;;9.2;49.3
53699;BME280;68408;53.952;27.612;2023-04-15T04:36:27;1014.2;;;9.2;49.2
53699;BME280;68408;53.952;27.612;2023-04-15T04:41:19;1014.3;;;9.2;49.3
53699;BME280;68408;53.952;27.612;2023-04-15T04:46:07;1014.2;;;9.1;49.3
53699;BME280;68408;53.952;27.612;2023-04-15T04:51:29;1014.3;;;9.1;49.4
53699;BME280;68408;53.952;27.612;2023-04-15T04:56:43;1014.3;;;9.1;49.5
53699;BME280;68408;53.952;27.612;2023-04-15T05:01:27;1014.3;;;9.2;49.3
53699;BME280;68408;53.952;27.612;2023-04-15T05:06:19;1014.3;;;9.3;49.3
53699;BME280;68408;53.952;27.612;2023-04-15T05:10:59;1014.3;;;9.2;49
53699;BME280;68408;53.952;27.612;2023-04-15T05:16:35;1014.3;;;9.3;48.9
53699;BME280;68408;53.952;27.612;2023-04-15T05:21:41;1014.4;;;9.3;48.6
53699;BME280;68408;53.952;27.612;2023-04-15T05:26:27;1014.5;;;9.5;48.6
53699;BME280;68408;53.952;27.612;2023-04-15T05:30:59;1014.5;;;9.6;47.8
53699;BME280;68408;53.952;27.612;2023-04-15T05:35:59;1014.5;;;9.7;47.6
53699;BME280;68408;53.952;27.612;2023-04-15T05:41:29;1014.6;;;9.7;47.4
53699;BME280;68408;53.952;27.612;2023-04-15T05:46:41;1014.6;;;9.8;47.2
53699;BME280;68408;53.952;27.612;2023-04-15T05:51:27;1014.6;;;9.9;46.8
53699;BME280;68408;53.952;27.612;2023-04-15T05:56:35;1014.6;;;10.1;46.3
53699;BME280;68408;53.952;27.612;2023-04-15T06:01:07;1014.6;;;10.3;46.4
53699;BME280;68408;53.952;27.612;2023-04-15T06:06:41;1014.6;;;10.4;45.3
53699;BME280;68408;53.952;27.612;2023-04-15T06:11:33;1014.7;;;10.2;45.4
53699;BME280;68408;53.952;27.612;2023-04-15T06:16:17;1014.7;;;10.2;45.4
53699;BME280;68408;53.952;27.612;2023-04-15T06:21:39;1014.7;;;10.3;45.4
53699;BME280;68408;53.952;27.612;2023-04-15T06:25:59;1014.8;;;10.3;44.6
53699;BME280;68408;53.952;27.612;2023-04-15T06:31:39;1014.8;;;10.3;44.7
53699;BME280;68408;53.952;27.612;2023-04-15T06:36:31;1014.8;;;10.3;44.9
53699;BME280;68408;53.952;27.612;2023-04-15T06:41:13;1014.8;;;10.4;44.8
53699;BME280;68408;53.952;27.612;2023-04-15T06:46:07;1014.9;;;10.4;45
53699;BME280;68408;53.952;27.612;2023-04-15T06:50:59;1014.9;;;10.6;44.5
53699;BME280;68408;53.952;27.612;2023-04-15T06:56:39;1014.9;;;10.8;43.8
53699;BME280;68408;53.952;27.612;2023-04-15T07:01:33;1015;;;10.8;43.1
53699;BME280;68408;53.952;27.612;2023-04-15T07:06:15;1015;;;10.7;41.9
53699;BME280;68408;53.952;27.612;2023-04-15T07:11:43;1015;;;10.7;41.6
53699;BME280;68408;53.952;27.612;2023-04-15T07:15:59;1015;;;10.7;41.2
53699;BME280;68408;53.952;27.612;2023-04-15T07:21:43;1014.9;;;10.7;40.8
53699;BME280;68408;53.952;27.612;2023-04-15T07:26:33;1014.9;;;10.7;40.4
53699;BME280;68408;53.952;27.612;2023-04-15T07:31:15;1014.9;;;10.6;40
53699;BME280;68408;53.952;27.612;2023-04-15T07:36:41;1014.9;;;10.4;40.4
53699;BME280;68408;53.952;27.612;2023-04-15T07:40:59;1015;;;10.4;40.4
53699;BME280;68408;53.952;27.612;2023-04-15T07:46:39;1015;;;10.5;40.7
53699;BME280;68408;53.952;27.612;2023-04-15T07:51:31;1015;;;10.4;40.2
53699;BME280;68408;53.952;27.612;2023-04-15T07:56:15;1015.1;;;10.4;39.9
53699;BME280;68408;53.952;27.612;2023-04-15T08:01:43;1015.2;;;10.4;39.8
53699;BME280;68408;53.952;27.612;2023-04-15T08:05:59;1015.2;;;10.5;39.9
53699;BME280;68408;53.952;27.612;2023-04-15T08:11:43;1015.2;;;10.7;39.2
53699;BME280;68408;53.952;27.612;2023-04-15T08:16:22;1015.1;;;10.8;39.2
53699;BME280;68408;53.952;27.612;2023-04-15T08:21:05;1015.1;;;11.1;38.9
53699;BME280;68408;53.952;27.612;2023-04-15T08:26:41;1015;;;11.3;38.1
53699;BME280;68408;53.952;27.612;2023-04-15T08:31:07;1015;;;11.8;37.2
53699;BME280;68408;53.952;27.612;2023-04-15T08:36:41;1014.9;;;12.2;36.5
53699;BME280;68408;53.952;27.612;2023-04-15T08:41:22;1014.9;;;12.4;35.4
53699;BME280;68408;53.952;27.612;2023-04-15T08:46:28;1015;;;12;35.5
53699;BME280;68408;53.952;27.612;2023-04-15T08:51:41;1015;;;11.9;35.8
53699;BME280;68408;53.952;27.612;2023-04-15T08:56:11;1015;;;11.9;35.8
53699;BME280;68408;53.952;27.612;2023-04-15T09:01:41;1015;;;11.9;35.9
53699;BME280;68408;53.952;27.612;2023-04-15T09:06:25;1015.1;;;12;35.7
53699;BME280;68408;53.952;27.612;2023-04-15T09:11:15;1015.1;;;12.2;35.3
53699;BME280;68408;53.952;27.612;2023-04-15T09:16:57;1015;;;12.3;35.1
53699;BME280;68408;53.952;27.612;2023-04-15T09:21:12;1015;;;12.3;34.8
53699;BME280;68408;53.952;27.612;2023-04-15T09:26:41;1015;;;12.1;34.9
53699;BME280;68408;53.952;27.612;2023-04-15T09:31:33;1015;;;12;35.2
53699;BME280;68408;53.952;27.612;2023-04-15T09:36:13;1015.1;;;11.8;35
53699;BME280;68408;53.952;27.612;2023-04-15T09:41:43;1015.1;;;11.6;35.7
53699;BME280;68408;53.952;27.612;2023-04-15T09:46:19;1015.1;;;11.9;35.3
53699;BME280;68408;53.952;27.612;2023-04-15T09:51:43;1015.1;;;12.1;34.9
53699;BME280;68408;53.952;27.612;2023-04-15T09:56:34;1015.1;;;12.1;35.3
53699;BME280;68408;53.952;27.612;2023-04-15T10:01:15;1015.2;;;12.1;35
53699;BME280;68408;53.952;27.612;2023-04-15T10:06:41;1015.2;;;12.2;35.1
53699;BME280;68408;53.952;27.612;2023-04-15T10:11:19;1015.2;;;12.4;34.8
53699;BME280;68408;53.952;27.612;2023-04-15T10:16:26;1015.2;;;12.2;35
53699;BME280;68408;53.952;27.612;2023-04-15T10:21:41;1015.3;;;12.1;35.1
53699;BME280;68408;53.952;27.612;2023-04-15T10:26:21;1015.3;;;11.7;35.3
53699;BME280;68408;53.952;27.612;2023-04-15T10:31:41;1015.3;;;11.3;35.9
53699;BME280;68408;53.952;27.612;2023-04-15T10:35:59;1015.2;;;11.1;36.2
53699;BME280;68408;53.952;27.612;2023-04-15T10:41:27;1015.2;;;11.1;36.4
53699;BME280;68408;53.952;27.612;2023-04-15T10:46:42;1015.2;;;11.2;36.9
53699;BME280;68408;53.952;27.612;2023-04-15T10:51:00;1015.1;;;11.5;36.5
53699;BME280;68408;53.952;27.612;2023-04-15T10:56:41;1015.1;;;11.7;35.9
53699;BME280;68408;53.952;27.612;2023-04-15T11:01:11;1015.1;;;11.7;35.5
53699;BME280;68408;53.952;27.612;2023-04-15T11:06:36;1015.1;;;11.7;35.8
53699;BME280;68408;53.952;27.612;2023-04-15T11:12:13;1015.2;;;11.9;35.5
53699;BME280;68408;53.952;27.612;2023-04-15T11:16:00;1015.2;;;12.3;34.8
53699;BME280;68408;53.952;27.612;2023-04-15T11:21:33;1015.2;;;12.3;33.6
53699;BME280;68408;53.952;27.612;2023-04-15T11:26:08;1015.1;;;12.5;33.9
53699;BME280;68408;53.952;27.612;2023-04-15T11:31:29;1015.1;;;12.7;33.3
53699;BME280;68408;53.952;27.612;2023-04-15T11:36:43;1015;;;12.6;33.1
53699;BME280;68408;53.952;27.612;2023-04-15T11:41:18;1015;;;12.9;33
53699;BME280;68408;53.952;27.612;2023-04-15T11:46:33;1015;;;13.1;32.6
53699;BME280;68408;53.952;27.612;2023-04-15T11:51:12;1015;;;13.3;32.2
53699;BME280;68408;53.952;27.612;2023-04-15T11:56:29;1015;;;13.4;31.8
53699;BME280;68408;53.952;27.612;2023-04-15T12:01:34;1014.9;;;13.6;31.5
53699;BME280;68408;53.952;27.612;2023-04-15T12:06:14;1015;;;13.6;31.3
53699;BME280;68408;53.952;27.612;2023-04-15T12:11:42;1015;;;13.3;31.1
53699;BME280;68408;53.952;27.612;2023-04-15T12:15:59;1015;;;13.1;31.5
53699;BME280;68408;53.952;27.612;2023-04-15T12:21:32;1015;;;13.1;31.5
53699;BME280;68408;53.952;27.612;2023-04-15T12:26:42;1015.1;;;13.1;31.6
53699;BME280;68408;53.952;27.612;2023-04-15T12:31:08;1015.1;;;12.9;31.3
53699;BME280;68408;53.952;27.612;2023-04-15T12:36:39;1015.1;;;12.8;31.4
53699;BME280;68408;53.952;27.612;2023-04-15T12:40:59;1015;;;12.9;31.6
53699;BME280;68408;53.952;27.612;2023-04-15T12:46:27;1015;;;13;31.7
53699;BME280;68408;53.952;27.612;2023-04-15T12:51:39;1015;;;12.9;31.5
53699;BME280;68408;53.952;27.612;2023-04-15T12:56:13;1015;;;12.5;31.8
53699;BME280;68408;53.952;27.612;2023-04-15T13:01:27;1015;;;12.2;32.2
53699;BME280;68408;53.952;27.612;2023-04-15T13:06:07;1015;;;12.3;32.3
53699;BME280;68408;53.952;27.612;2023-04-15T13:11:28;1015;;;12.1;32.1
53699;BME280;68408;53.952;27.612;2023-04-15T13:16:39;1015;;;12;31.8
53699;BME280;68408;53.952;27.612;2023-04-15T13:21:15;1014.9;;;11.7;31.8
53699;BME280;68408;53.952;27.612;2023-04-15T13:26:41;1015;;;11.5;32.6
53699;BME280;68408;53.952;27.612;2023-04-15T13:31:41;1015.1;;;11.3;32.8
53699;BME280;68408;53.952;27.612;2023-04-15T13:36:29;1015.1;;;11.1;32.7
53699;BME280;68408;53.952;27.612;2023-04-15T13:41:41;1015.3;;;10.8;32.6
53699;BME280;68408;53.952;27.612;2023-04-15T13:46:13;1015.4;;;10.6;32.8
53699;BME280;68408;53.952;27.612;2023-04-15T13:51:37;1015.3;;;10.4;33.2
53699;BME280;68408;53.952;27.612;2023-04-15T13:56:08;1015.3;;;10.5;32.9
53699;BME280;68408;53.952;27.612;2023-04-15T14:01:21;1015.4;;;10.6;32.6
53699;BME280;68408;53.952;27.612;2023-04-15T14:06:39;1015.4;;;10.7;32.8
53699;BME280;68408;53.952;27.612;2023-04-15T14:11:07;1015.4;;;10.8;32.7
53699;BME280;68408;53.952;27.612;2023-04-15T14:16:41;1015.4;;;10.7;32.8
53699;BME280;68408;53.952;27.612;2023-04-15T14:21:07;1015.4;;;10.6;32.9
53699;BME280;68408;53.952;27.612;2023-04-15T14:26:29;1015.4;;;10.5;33.3
53699;BME280;68408;53.952;27.612;2023-04-15T14:30:59;1015.4;;;10.5;33.4
53699;BME280;68408;53.952;27.612;2023-04-15T14:36:08;1015.4;;;10.4;33.6
53699;BME280;68408;53.952;27.612;2023-04-15T14:41:39;1015.5;;;10.4;33.8
53699;BME280;68408;53.952;27.612;2023-04-15T14:46:17;1015.5;;;10.3;33.7
53699;BME280;68408;53.952;27.612;2023-04-15T14:51:27;1015.6;;;10.1;33.8
53699;BME280;68408;53.952;27.612;2023-04-15T14:56:07;1015.6;;;10;34.2
53699;BME280;68408;53.952;27.612;2023-04-15T15:01:13;1015.6;;;10;34.3
53699;BME280;68408;53.952;27.612;2023-04-15T15:06:40;1015.6;;;9.8;34.6
53699;BME280;68408;53.952;27.612;2023-04-15T15:11:07;1015.6;;;9.7;34.8
53699;BME280;68408;53.952;27.612;2023-04-15T15:16:39;1015.7;;;9.6;35.2
53699;BME280;68408;53.952;27.612;2023-04-15T15:20:59;1015.7;;;9.6;35.5
53699;BME280;68408;53.952;27.612;2023-04-15T15:26:13;1015.8;;;9.6;35.8
53699;BME280;68408;53.952;27.612;2023-04-15T15:31:39;1015.8;;;9.6;36.2
53699;BME280;68408;53.952;27.612;2023-04-15T15:35:59;1015.8;;;9.7;36.6
53699;BME280;68408;53.952;27.612;2023-04-15T15:41:25;1015.8;;;9.6;37.1
53699;BME280;68408;53.952;27.612;2023-04-15T15:46:05;1015.8;;;9.5;38
53699;BME280;68408;53.952;27.612;2023-04-15T15:51:11;1015.8;;;9.3;38.4
53699;BME280;68408;53.952;27.612;2023-04-15T15:56:37;1015.8;;;9.2;38.5
53699;BME280;68408;53.952;27.612;2023-04-15T16:01:29;1015.8;;;9.2;38.6
53699;BME280;68408;53.952;27.612;2023-04-15T16:06:25;1015.9;;;9.2;38.7
53699;BME280;68408;53.952;27.612;2023-04-15T16:10:59;1016;;;9.1;38.9
53699;BME280;68408;53.952;27.612;2023-04-15T16:15:59;1016;;;9;38.9
53699;BME280;68408;53.952;27.612;2023-04-15T16:21:39;1016;;;8.9;39.2
53699;BME280;68408;53.952;27.612;2023-04-15T16:26:00;1016;;;8.9;39.4
53699;BME280;68408;53.952;27.612;2023-04-15T16:31:21;1016.1;;;8.9;39.9
53699;BME280;68408;53.952;27.612;2023-04-15T16:35:59;1016.1;;;8.8;40
53699;BME280;68408;53.952;27.612;2023-04-15T16:41:41;1016;;;8.7;40
53699;BME280;68408;53.952;27.612;2023-04-15T16:46:41;1016.1;;;8.6;40
53699;BME280;68408;53.952;27.612;2023-04-15T16:50:59;1016.1;;;8.5;39.8
53699;BME280;68408;53.952;27.612;2023-04-15T16:56:29;1016.1;;;8.6;39.8
53699;BME280;68408;53.952;27.612;2023-04-15T17:01:07;1016.1;;;8.7;39.5
53699;BME280;68408;53.952;27.612;2023-04-15T17:05:59;1016.2;;;8.6;39.5
53699;BME280;68408;53.952;27.612;2023-04-15T17:11:31;1016.3;;;8.6;39.4
53699;BME280;68408;53.952;27.612;2023-04-15T17:16:00;1016.3;;;8.6;39.5
53699;BME280;68408;53.952;27.612;2023-04-15T17:21:27;1016.5;;;8.6;39.5
53699;BME280;68408;53.952;27.612;2023-04-15T17:26:07;1016.5;;;8.6;40.3
53699;BME280;68408;53.952;27.612;2023-04-15T17:31:15;1016.7;;;8.5;41.7
53699;BME280;68408;53.952;27.612;2023-04-15T17:36:41;1016.7;;;8.3;43.4
53699;BME280;68408;53.952;27.612;2023-04-15T17:41:31;1016.8;;;8.2;44.5
53699;BME280;68408;53.952;27.612;2023-04-15T17:46:28;1016.9;;;8;44.4
53699;BME280;68408;53.952;27.612;2023-04-15T17:50:59;1017.1;;;8;44.7
53699;BME280;68408;53.952;27.612;2023-04-15T17:56:13;1017.1;;;7.8;44.6
53699;BME280;68408;53.952;27.612;2023-04-15T18:01:40;1017.2;;;7.8;44.2
53699;BME280;68408;53.952;27.612;2023-04-15T18:06:17;1017.1;;;7.6;44.1
53699;BME280;68408;53.952;27.612;2023-04-15T18:11:27;1017.1;;;7.5;43.7
53699;BME280;68408;53.952;27.612;2023-04-15T18:15:59;1017.1;;;7.5;43.6
53699;BME280;68408;53.952;27.612;2023-04-15T18:21:13;1017.1;;;7.5;43.7
53699;BME280;68408;53.952;27.612;2023-04-15T18:26:39;1017.1;;;7.4;43.9
53699;BME280;68408;53.952;27.612;2023-04-15T18:31:11;1017.1;;;7.4;44
53699;BME280;68408;53.952;27.612;2023-04-15T18:36:27;1017.1;;;7.3;44.2
53699;BME280;68408;53.952;27.612;2023-04-15T18:40:59;1017.1;;;7.2;44.5
53699;BME280;68408;53.952;27.612;2023-04-15T18:46:00;1017.1;;;7.1;44.5
53699;BME280;68408;53.952;27.612;2023-04-15T18:51:41;1017.1;;;7.1;44.5
53699;BME280;68408;53.952;27.612;2023-04-15T18:56:27;1017.1;;;7.1;44.4
53699;BME280;68408;53.952;27.612;2023-04-15T19:01:11;1017.1;;;7.2;44.1
53699;BME280;68408;53.952;27.612;2023-04-15T19:05:59;1017.1;;;7.2;43.9
53699;BME280;68408;53.952;27.612;2023-04-15T19:11:13;1017.1;;;7.1;44
53699;BME280;68408;53.952;27.612;2023-04-15T19:16:37;1017.1;;;7.2;43.9
53699;BME280;68408;53.952;27.612;2023-04-15T19:21:14;1017.1;;;7.2;43.9
53699;BME280;68408;53.952;27.612;2023-04-15T19:26:30;1017.2;;;7.2;43.6
53699;BME280;68408;53.952;27.612;2023-04-15T19:31:08;1017.2;;;7.2;43.7
53699;BME280;68408;53.952;27.612;2023-04-15T19:36:40;1017.2;;;7.2;43.6
53699;BME280;68408;53.952;27.612;2023-04-15T19:41:42;1017.1;;;7.2;43.9
53699;BME280;68408;53.952;27.612;2023-04-15T19:46:00;1017.1;;;7.2;44
53699;BME280;68408;53.952;27.612;2023-04-15T19:51:28;1017;;;7.2;44.7
53699;BME280;68408;53.952;27.612;2023-04-15T19:56:18;1017;;;7.3;45.2
53699;BME280;68408;53.952;27.612;2023-04-15T20:01:14;1017;;;7.4;45.1
53699;BME280;68408;53.952;27.612;2023-04-15T20:06:40;1017;;;7.4;44.9
53699;BME280;68408;53.952;27.612;2023-04-15T20:11:14;1017;;;7.3;44.7
53699;BME280;68408;53.952;27.612;2023-04-15T20:16:28;1017;;;7.3;44.6
53699;BME280;68408;53.952;27.612;2023-04-15T20:21:08;1016.9;;;7.3;44.7
53699;BME280;68408;53.952;27.612;2023-04-15T20:26:14;1016.8;;;7.2;44.6
53699;BME280;68408;53.952;27.612;2023-04-15T20:31:40;1016.8;;;7.2;44.6
53699;BME280;68408;53.952;27.612;2023-04-15T20:36:14;1016.8;;;7.1;44.8
53699;BME280;68408;53.952;27.612;2023-04-15T20:41:28;1016.8;;;7.1;44.8
53699;BME280;68408;53.952;27.612;2023-04-15T20:46:08;1016.7;;;7.1;44.8
53699;BME280;68408;53.952;27.612;2023-04-15T20:51:06;1016.7;;;7.1;44.9
53699;BME280;68408;53.952;27.612;2023-04-15T20:56:42;1016.7;;;7.1;45
53699;BME280;68408;53.952;27.612;2023-04-15T21:01:16;1016.6;;;7.1;45.2
53699;BME280;68408;53.952;27.612;2023-04-15T21:06:28;1016.7;;;7;45.4
53699;BME280;68408;53.952;27.612;2023-04-15T21:11:18;1016.7;;;7;46.5
53699;BME280;68408;53.952;27.612;2023-04-15T21:16:24;1016.8;;;6.9;47.3
53699;BME280;68408;53.952;27.612;2023-04-15T21:21:38;1016.7;;;6.8;48.5
53699;BME280;68408;53.952;27.612;2023-04-15T21:26:08;1016.7;;;6.7;49.7
53699;BME280;68408;53.952;27.612;2023-04-15T21:31:30;1016.8;;;6.7;50
53699;BME280;68408;53.952;27.612;2023-04-15T21:36:32;1016.8;;;6.8;50.5
53699;BME280;68408;53.952;27.612;2023-04-15T21:41:00;1016.9;;;6.6;52.3
53699;BME280;68408;53.952;27.612;2023-04-15T21:46:40;1017;;;6.5;54.8
53699;BME280;68408;53.952;27.612;2023-04-15T21:51:08;1017;;;6.2;57.4
53699;BME280;68408;53.952;27.612;2023-04-15T21:56:28;1017;;;6;59.4
53699;BME280;68408;53.952;27.612;2023-04-15T22:01:18;1017;;;5.7;60.9
53699;BME280;68408;53.952;27.612;2023-04-15T22:06:26;1017;;;5.5;61.7
53699;BME280;68408;53.952;27.612;2023-04-15T22:11:40;1016.9;;;5.4;62.3
53699;BME280;68408;53.952;27.612;2023-04-15T22:16:14;1017;;;5.3;63.8
53699;BME280;68408;53.952;27.612;2023-04-15T22:21:28;1017;;;5.1;64.2
53699;BME280;68408;53.952;27.612;2023-04-15T22:26:00;1017;;;5;64.9
53699;BME280;68408;53.952;27.612;2023-04-15T22:31:14;1017;;;4.9;65.7
53699;BME280;68408;53.952;27.612;2023-04-15T22:36:38;1017;;;4.9;65.6
53699;BME280;68408;53.952;27.612;2023-04-15T22:41:14;1016.9;;;5;65.4
53699;BME280;68408;53.952;27.612;2023-04-15T22:46:30;1016.9;;;5;65.3
53699;BME280;68408;53.952;27.612;2023-04-15T22:51:08;1016.9;;;5;65
53699;BME280;68408;53.952;27.612;2023-04-15T22:56:40;1016.9;;;5;65.6
53699;BME280;68408;53.952;27.612;2023-04-15T23:01:10;1016.9;;;5.1;65.8
53699;BME280;68408;53.952;27.612;2023-04-15T23:06:40;1016.8;;;5;66.3
53699;BME280;68408;53.952;27.612;2023-04-15T23:11:32;1016.8;;;5;66.1
53699;BME280;68408;53.952;27.612;2023-04-15T23:16:00;1016.8;;;5;66.3
53699;BME280;68408;53.952;27.612;2023-04-15T23:21:14;1016.7;;;5;66.8
53699;BME280;68408;53.952;27.612;2023-04-15T23:26:26;1016.8;;;5;66.8
53699;BME280;68408;53.952;27.612;2023-04-15T23:31:40;1016.8;;;5;67
53699;BME280;68408;53.952;27.612;2023-04-15T23:36:28;1016.8;;;4.9;67.3
53699;BME280;68408;53.952;27.612;2023-04-15T23:41:18;1016.8;;;4.9;67.8
53699;BME280;68408;53.952;27.612;2023-04-15T23:46:28;1016.8;;;4.8;68.3
53699;BME280;68408;53.952;27.612;2023-04-15T23:51:00;1016.8;;;4.7;68.8
53699;BME280;68408;53.952;27.612;2023-04-15T23:56:26;1016.8;;;4.7;69
